createdAt,value
2018-11-12T00:01:34.149Z,21.70
2018-11-12T00:04:02.725Z,21.97
2018-11-12T00:06:31.285Z,22.27
2018-11-12T00:08:59.869Z,21.13
2018-11-12T00:11:28.455Z,20.83
2018-11-12T00:13:56.962Z,22.60
2018-11-12T00:16:32.230Z,29.50
2018-11-12T00:19:00.913Z,23.00
2018-11-12T00:21:30.001Z,23.27
2018-11-12T00:23:58.765Z,24.27
2018-11-12T00:26:27.624Z,24.20
2018-11-12T00:28:56.206Z,21.97
2018-11-12T00:31:25.193Z,23.10
2018-11-12T00:33:53.749Z,21.83
2018-11-12T00:36:22.482Z,21.90
2018-11-12T00:38:51.213Z,21.20
2018-11-12T00:41:19.992Z,22.30
2018-11-12T00:43:48.725Z,23.67
2018-11-12T00:46:17.245Z,22.73
2018-11-12T00:48:45.840Z,20.83
2018-11-12T00:51:18.246Z,22.47
2018-11-12T00:53:46.822Z,21.57
2018-11-12T00:56:15.334Z,22.30
2018-11-12T00:58:43.873Z,20.87
2018-11-12T01:01:12.449Z,20.67
2018-11-12T01:03:40.969Z,19.73
2018-11-12T01:06:09.822Z,19.00
2018-11-12T01:08:38.408Z,19.00
2018-11-12T01:11:07.067Z,18.33
2018-11-12T01:13:35.613Z,19.97
2018-11-12T01:16:04.229Z,19.27
2018-11-12T01:18:32.757Z,19.77
2018-11-12T01:21:01.289Z,20.33
2018-11-12T01:23:30.847Z,20.17
2018-11-12T01:25:59.321Z,19.40
2018-11-12T01:28:27.898Z,19.17
2018-11-12T01:31:01.759Z,20.90
2018-11-12T01:33:30.308Z,19.50
2018-11-12T01:35:58.831Z,19.00
2018-11-12T01:38:27.402Z,19.33
2018-11-12T01:40:55.920Z,18.13
2018-11-12T01:43:24.484Z,16.67
2018-11-12T01:45:53.038Z,16.73
2018-11-12T01:48:21.590Z,16.47
2018-11-12T01:50:50.148Z,16.10
2018-11-12T01:53:18.669Z,16.10
2018-11-12T01:55:47.213Z,16.33
2018-11-12T01:58:15.969Z,14.57
2018-11-12T02:00:44.531Z,17.90
2018-11-12T02:03:13.065Z,17.67
2018-11-12T02:05:41.630Z,16.00
2018-11-12T02:08:10.177Z,15.77
2018-11-12T02:10:38.945Z,17.50
2018-11-12T02:13:07.498Z,18.73
2018-11-12T02:15:36.072Z,19.80
2018-11-12T02:18:04.817Z,19.67
2018-11-12T02:20:33.510Z,20.67
2018-11-12T02:23:02.035Z,19.03
2018-11-12T02:25:30.601Z,18.67
2018-11-12T02:27:59.112Z,19.47
2018-11-12T02:30:32.847Z,19.13
2018-11-12T02:33:01.392Z,18.50
2018-11-12T02:35:30.664Z,19.53
2018-11-12T02:37:59.189Z,18.93
2018-11-12T02:40:27.734Z,18.77
2018-11-12T02:42:56.489Z,16.87
2018-11-12T02:45:25.041Z,15.87
2018-11-12T02:47:53.602Z,16.43
2018-11-12T02:50:22.181Z,17.40
2018-11-12T02:52:50.836Z,20.30
2018-11-12T02:55:19.432Z,23.37
2018-11-12T02:57:48.527Z,24.10
2018-11-12T03:00:19.374Z,25.43
2018-11-12T03:02:54.690Z,26.70
2018-11-12T03:05:23.381Z,26.30
2018-11-12T03:07:51.999Z,27.73
2018-11-12T03:10:23.716Z,29.30
2018-11-12T03:12:55.352Z,31.40
2018-11-12T03:15:23.935Z,32.10
2018-11-12T03:17:52.805Z,31.17
2018-11-12T03:20:22.541Z,31.83
2018-11-12T03:22:51.104Z,32.37
2018-11-12T03:25:20.766Z,32.17
2018-11-12T03:27:49.846Z,31.93
2018-11-12T03:30:19.660Z,33.03
2018-11-12T03:32:48.874Z,30.23
2018-11-12T03:35:17.603Z,31.43
2018-11-12T03:37:47.298Z,31.83
2018-11-12T03:40:17.931Z,29.57
2018-11-12T03:42:46.957Z,28.07
2018-11-12T03:45:16.771Z,30.07
2018-11-12T03:47:45.427Z,28.73
2018-11-12T03:50:15.562Z,27.47
2018-11-12T03:52:44.434Z,27.00
2018-11-12T03:55:14.046Z,27.13
2018-11-12T03:57:42.738Z,28.47
2018-11-12T04:00:15.337Z,26.13
2018-11-12T04:02:44.051Z,28.77
2018-11-12T04:05:12.566Z,30.13
2018-11-12T04:07:41.604Z,30.33
2018-11-12T04:10:12.216Z,32.90
2018-11-12T04:12:40.769Z,30.03
2018-11-12T04:15:12.794Z,30.37
2018-11-12T04:17:41.396Z,29.07
2018-11-12T04:20:11.664Z,29.07
2018-11-12T04:22:41.099Z,30.37
2018-11-12T04:25:10.956Z,29.87
2018-11-12T04:27:39.483Z,29.33
2018-11-12T04:30:11.411Z,29.83
2018-11-12T04:32:40.193Z,28.60
2018-11-12T04:35:09.317Z,30.60
2018-11-12T04:37:37.912Z,27.73
2018-11-12T04:40:08.066Z,30.80
2018-11-12T04:42:36.675Z,31.80
2018-11-12T04:45:05.639Z,29.63
2018-11-12T04:47:34.183Z,29.13
2018-11-12T04:50:02.662Z,30.13
2018-11-12T04:52:31.213Z,30.23
2018-11-12T04:54:59.740Z,31.23
2018-11-12T04:57:28.247Z,32.47
2018-11-12T04:59:56.726Z,31.10
2018-11-12T05:02:27.766Z,30.47
2018-11-12T05:04:56.248Z,30.20
2018-11-12T05:07:25.624Z,29.83
2018-11-12T05:09:54.105Z,29.73
2018-11-12T05:12:22.636Z,29.20
2018-11-12T05:14:51.118Z,29.07
2018-11-12T05:17:19.601Z,30.13
2018-11-12T05:19:48.077Z,30.27
2018-11-12T05:22:16.594Z,31.67
2018-11-12T05:24:45.101Z,31.40
2018-11-12T05:27:13.597Z,32.23
2018-11-12T05:29:42.074Z,28.47
2018-11-12T05:32:10.614Z,29.53
2018-11-12T05:34:39.074Z,30.47
2018-11-12T05:37:07.703Z,30.30
2018-11-12T05:39:36.201Z,30.83
2018-11-12T05:42:05.035Z,32.50
2018-11-12T05:44:33.579Z,30.53
2018-11-12T05:47:02.082Z,31.17
2018-11-12T05:49:30.580Z,29.90
2018-11-12T05:51:59.082Z,31.80
2018-11-12T05:54:27.632Z,33.30
2018-11-12T05:56:56.126Z,29.70
2018-11-12T05:59:24.674Z,30.03
2018-11-12T06:01:53.184Z,31.90
2018-11-12T06:04:21.701Z,32.77
2018-11-12T06:06:50.194Z,31.07
2018-11-12T06:09:18.734Z,31.63
2018-11-12T06:11:47.213Z,30.57
2018-11-12T06:14:15.774Z,33.57
2018-11-12T06:16:44.275Z,32.53
2018-11-12T06:19:12.773Z,31.20
2018-11-12T06:21:41.245Z,32.93
2018-11-12T06:24:09.742Z,30.47
2018-11-12T06:26:38.218Z,29.77
2018-11-12T06:29:06.841Z,29.77
2018-11-12T06:31:35.362Z,26.93
2018-11-12T06:34:03.888Z,27.60
2018-11-12T06:36:32.442Z,27.73
2018-11-12T06:39:00.897Z,27.33
2018-11-12T06:41:29.379Z,29.03
2018-11-12T06:43:57.907Z,27.63
2018-11-12T06:46:26.427Z,27.37
2018-11-12T06:48:54.949Z,26.73
2018-11-12T06:51:23.443Z,26.33
2018-11-12T06:53:51.947Z,29.27
2018-11-12T06:56:20.422Z,28.53
2018-11-12T06:58:49.021Z,28.20
2018-11-12T07:01:18.533Z,27.93
2018-11-12T07:03:47.110Z,26.83
2018-11-12T07:06:15.728Z,27.63
2018-11-12T07:08:44.285Z,28.00
2018-11-12T07:11:12.792Z,29.33
2018-11-12T07:13:41.327Z,27.47
2018-11-12T07:16:10.174Z,27.73
2018-11-12T07:18:39.124Z,29.43
2018-11-12T07:21:07.804Z,28.83
2018-11-12T07:23:36.538Z,26.67
2018-11-12T07:26:06.050Z,28.27
2018-11-12T07:28:34.550Z,27.50
2018-11-12T07:31:03.175Z,28.80
2018-11-12T07:33:31.633Z,28.60
2018-11-12T07:36:00.198Z,26.83
2018-11-12T07:38:28.708Z,26.23
2018-11-12T07:40:57.260Z,29.43
2018-11-12T07:43:26.684Z,26.10
2018-11-12T07:45:55.552Z,26.67
2018-11-12T07:48:24.070Z,26.77
2018-11-12T07:50:52.634Z,26.20
2018-11-12T07:53:21.192Z,26.13
2018-11-12T07:55:53.962Z,25.37
2018-11-12T07:58:22.482Z,25.97
2018-11-12T08:00:51.254Z,26.90
2018-11-12T08:03:19.817Z,26.83
2018-11-12T08:05:48.705Z,26.40
2018-11-12T08:08:17.708Z,27.00
2018-11-12T08:10:46.241Z,25.63
2018-11-12T08:13:14.809Z,26.57
2018-11-12T08:15:43.441Z,25.37
2018-11-12T08:18:11.973Z,25.83
2018-11-12T08:20:40.526Z,26.87
2018-11-12T08:23:09.063Z,24.90
2018-11-12T08:25:37.644Z,25.90
2018-11-12T08:28:06.195Z,24.83
2018-11-12T08:30:34.827Z,25.27
2018-11-12T08:33:03.396Z,25.23
2018-11-12T08:35:32.006Z,25.63
2018-11-12T08:38:00.763Z,25.97
2018-11-12T08:40:30.606Z,24.80
2018-11-12T08:42:59.091Z,26.43
2018-11-12T08:45:27.648Z,26.90
2018-11-12T08:47:56.838Z,28.10
2018-11-12T08:50:26.545Z,25.80
2018-11-12T08:52:55.826Z,27.10
2018-11-12T08:55:25.683Z,26.27
2018-11-12T08:57:58.947Z,26.73
2018-11-12T09:00:27.462Z,26.40
2018-11-12T09:02:56.108Z,26.43
2018-11-12T09:05:25.830Z,25.87
2018-11-12T09:07:57.682Z,24.57
2018-11-12T09:10:28.977Z,26.23
2018-11-12T09:12:57.510Z,26.60
2018-11-12T09:15:26.271Z,25.77
2018-11-12T09:17:54.714Z,26.90
2018-11-12T09:20:24.610Z,26.33
2018-11-12T09:22:53.331Z,27.07
2018-11-12T09:25:23.061Z,26.30
2018-11-12T09:27:51.747Z,25.33
2018-11-12T09:30:21.493Z,25.83
2018-11-12T09:32:50.151Z,26.50
2018-11-12T09:35:23.436Z,26.17
2018-11-12T09:39:28.129Z,27.67
2018-11-12T09:41:57.055Z,27.43
2018-11-12T09:44:25.597Z,27.40
2018-11-12T09:46:54.147Z,30.00
2018-11-12T09:49:22.668Z,27.53
2018-11-12T09:51:51.217Z,28.33
2018-11-12T09:54:19.881Z,28.63
2018-11-12T09:56:48.335Z,29.40
2018-11-12T09:59:16.885Z,29.43
2018-11-12T10:01:46.086Z,28.47
2018-11-12T10:04:15.180Z,29.30
2018-11-12T10:06:44.285Z,30.97
2018-11-12T10:09:16.035Z,32.03
2018-11-12T10:11:43.552Z,29.90
2018-11-12T10:14:12.867Z,32.17
2018-11-12T10:16:42.467Z,33.83
2018-11-12T10:19:08.380Z,31.80
2018-11-12T10:21:36.873Z,36.43
2018-11-12T10:24:05.602Z,49.90
2018-11-12T10:26:34.145Z,34.13
2018-11-12T10:29:02.652Z,36.87
2018-11-12T10:31:31.175Z,52.20
2018-11-12T10:33:59.696Z,45.00
2018-11-12T10:36:28.233Z,38.63
2018-11-12T10:38:56.709Z,40.90
2018-11-12T10:41:25.301Z,48.27
2018-11-12T10:43:53.843Z,44.23
2018-11-12T10:46:22.322Z,39.00
2018-11-12T10:48:50.830Z,36.70
2018-11-12T10:51:19.472Z,37.03
2018-11-12T10:53:50.211Z,30.40
2018-11-12T10:56:16.492Z,32.57
2018-11-12T10:58:45.035Z,30.13
2018-11-12T11:01:20.239Z,31.67
2018-11-12T11:03:53.641Z,29.80
2018-11-12T11:06:22.174Z,30.40
2018-11-12T11:08:50.720Z,31.83
2018-11-12T11:11:19.209Z,32.57
2018-11-12T11:13:47.749Z,31.00
2018-11-12T11:16:16.227Z,30.87
2018-11-12T11:18:44.729Z,34.37
2018-11-12T11:21:13.284Z,34.33
2018-11-12T11:23:41.756Z,33.03
2018-11-12T11:26:10.233Z,32.27
2018-11-12T11:28:38.754Z,32.77
2018-11-12T11:31:07.241Z,30.93
2018-11-12T11:33:35.758Z,31.73
2018-11-12T11:36:04.258Z,29.50
2018-11-12T11:38:32.785Z,29.03
2018-11-12T11:41:01.253Z,30.43
2018-11-12T11:43:29.767Z,31.23
2018-11-12T11:45:58.228Z,33.23
2018-11-12T11:48:26.741Z,29.03
2018-11-12T11:50:55.694Z,28.63
2018-11-12T11:53:24.247Z,28.30
2018-11-12T11:55:52.789Z,29.57
2018-11-12T11:58:21.326Z,24.90
2018-11-12T12:00:49.812Z,28.03
2018-11-12T12:03:19.414Z,30.47
2018-11-12T12:05:47.918Z,28.77
2018-11-12T12:08:16.449Z,26.93
2018-11-12T12:10:44.933Z,27.97
2018-11-12T12:13:13.502Z,27.30
2018-11-12T12:15:42.043Z,28.53
2018-11-12T12:18:10.583Z,28.03
2018-11-12T12:20:39.069Z,28.23
2018-11-12T12:23:07.590Z,30.27
2018-11-12T12:25:36.243Z,29.57
2018-11-12T12:28:04.905Z,30.90
2018-11-12T12:30:33.422Z,30.97
2018-11-12T12:33:01.904Z,31.57
2018-11-12T12:35:30.465Z,29.20
2018-11-12T12:37:58.928Z,29.30
2018-11-12T12:40:27.456Z,30.07
2018-11-12T12:42:55.972Z,32.07
2018-11-12T12:45:26.616Z,30.80
2018-11-12T12:47:55.890Z,32.67
2018-11-12T12:50:24.457Z,31.67
2018-11-12T12:52:52.953Z,31.70
2018-11-12T12:55:21.576Z,31.33
2018-11-12T12:57:50.167Z,30.97
2018-11-12T13:00:21.386Z,28.97
2018-11-12T13:02:49.969Z,28.77
2018-11-12T13:05:18.729Z,26.90
2018-11-12T13:07:47.270Z,27.10
2018-11-12T13:10:17.089Z,24.97
2018-11-12T13:12:45.710Z,24.17
2018-11-12T13:15:15.449Z,25.53
2018-11-12T13:17:44.599Z,26.97
2018-11-12T13:20:15.738Z,25.90
2018-11-12T13:22:44.778Z,26.73
2018-11-12T13:25:13.450Z,27.30
2018-11-12T13:27:42.537Z,27.37
2018-11-12T13:30:13.513Z,28.20
2018-11-12T13:32:42.692Z,27.70
2018-11-12T13:35:12.729Z,31.43
2018-11-12T13:37:41.266Z,30.63
2018-11-12T13:40:13.891Z,31.90
2018-11-12T13:42:43.666Z,32.73
2018-11-12T13:45:12.182Z,34.80
2018-11-12T13:47:40.736Z,42.83
2018-11-12T13:50:12.179Z,40.53
2018-11-12T13:52:40.793Z,36.83
2018-11-12T13:55:11.006Z,42.57
2018-11-12T13:57:39.509Z,40.07
2018-11-12T14:00:10.353Z,38.70
2018-11-12T14:02:38.853Z,43.03
2018-11-12T14:05:09.137Z,34.83
2018-11-12T14:07:37.621Z,35.03
2018-11-12T14:10:07.577Z,34.43
2018-11-12T14:12:36.091Z,34.20
2018-11-12T14:15:04.704Z,36.10
2018-11-12T14:17:33.194Z,39.47
2018-11-12T14:20:01.745Z,41.97
2018-11-12T14:22:30.212Z,38.00
2018-11-12T14:24:58.768Z,37.00
2018-11-12T14:27:27.246Z,37.73
2018-11-12T14:29:55.789Z,35.07
2018-11-12T14:32:24.311Z,34.63
2018-11-12T14:34:52.795Z,34.47
2018-11-12T14:37:21.308Z,33.50
2018-11-12T14:39:50.309Z,33.37
2018-11-12T14:42:18.865Z,35.13
2018-11-12T14:44:47.367Z,32.47
2018-11-12T14:47:15.883Z,32.03
2018-11-12T14:49:44.398Z,30.63
2018-11-12T14:52:12.925Z,29.77
2018-11-12T14:54:41.422Z,30.37
2018-11-12T14:57:09.957Z,29.53
2018-11-12T14:59:38.482Z,178.47
2018-11-12T15:02:07.050Z,90.67
2018-11-12T15:04:35.550Z,196.03
2018-11-12T15:07:04.106Z,59.57
2018-11-12T15:09:32.601Z,69.73
2018-11-12T15:12:01.124Z,90.57
2018-11-12T15:14:29.631Z,46.73
2018-11-12T15:16:58.145Z,31.87
2018-11-12T15:19:31.560Z,33.40
2018-11-12T15:22:00.569Z,32.87
2018-11-12T15:24:29.110Z,32.40
2018-11-12T15:26:57.718Z,33.23
2018-11-12T15:29:26.293Z,32.57
2018-11-12T15:31:55.012Z,32.27
2018-11-12T15:34:23.542Z,33.83
2018-11-12T15:36:52.168Z,32.00
2018-11-12T15:39:20.610Z,35.60
2018-11-12T15:41:49.151Z,40.33
2018-11-12T15:44:17.649Z,39.23
2018-11-12T15:46:46.193Z,33.90
2018-11-12T15:49:15.369Z,31.07
2018-11-12T15:51:43.881Z,29.10
2018-11-12T15:54:12.355Z,28.50
2018-11-12T15:56:41.037Z,26.70
2018-11-12T15:59:09.578Z,28.73
2018-11-12T16:01:38.078Z,28.07
2018-11-12T16:04:06.611Z,26.97
2018-11-12T16:06:35.289Z,26.97
2018-11-12T16:09:05.302Z,27.67
2018-11-12T16:11:37.783Z,28.07
2018-11-12T16:14:07.399Z,31.90
2018-11-12T16:16:36.006Z,27.63
2018-11-12T16:19:06.408Z,27.20
2018-11-12T16:21:35.014Z,28.70
2018-11-12T16:24:03.596Z,28.60
2018-11-12T16:26:32.222Z,27.57
2018-11-12T16:29:00.773Z,27.27
2018-11-12T16:31:29.409Z,26.30
2018-11-12T16:33:57.898Z,26.93
2018-11-12T16:36:26.544Z,24.80
2018-11-12T16:38:55.953Z,25.47
2018-11-12T16:41:24.455Z,25.93
2018-11-12T16:43:53.023Z,28.27
2018-11-12T16:46:23.365Z,26.70
2018-11-12T16:48:51.905Z,24.97
2018-11-12T16:51:20.442Z,26.43
2018-11-12T16:53:48.935Z,25.80
2018-11-12T16:56:17.520Z,24.60
2018-11-12T16:58:47.103Z,25.07
2018-11-12T17:01:15.622Z,26.10
2018-11-12T17:03:44.079Z,28.50
2018-11-12T17:06:12.603Z,28.53
2018-11-12T17:08:41.101Z,28.53
2018-11-12T17:11:09.629Z,25.40
2018-11-12T17:13:38.127Z,25.93
2018-11-12T17:16:06.714Z,33.53
2018-11-12T17:18:35.185Z,27.70
2018-11-12T17:21:03.675Z,26.77
2018-11-12T17:23:32.165Z,26.87
2018-11-12T17:26:00.682Z,25.47
2018-11-12T17:28:29.155Z,27.80
2018-11-12T17:30:57.656Z,26.23
2018-11-12T17:33:26.189Z,26.63
2018-11-12T17:35:54.669Z,26.87
2018-11-12T17:38:23.188Z,27.23
2018-11-12T17:40:51.669Z,28.27
2018-11-12T17:43:20.193Z,29.77
2018-11-12T17:45:48.668Z,28.93
2018-11-12T17:48:17.170Z,27.73
2018-11-12T17:50:45.627Z,27.90
2018-11-12T17:53:14.222Z,27.57
2018-11-12T17:55:42.665Z,27.30
2018-11-12T17:58:11.190Z,26.87
2018-11-12T18:00:39.653Z,25.97
2018-11-12T18:03:08.137Z,25.97
2018-11-12T18:05:36.633Z,28.00
2018-11-12T18:08:05.288Z,25.10
2018-11-12T18:10:33.713Z,24.57
2018-11-12T18:13:02.231Z,26.33
2018-11-12T18:15:30.721Z,25.63
2018-11-12T18:17:59.226Z,24.00
2018-11-12T18:20:28.408Z,23.77
2018-11-12T18:22:57.543Z,26.10
2018-11-12T18:25:26.581Z,25.87
2018-11-12T18:27:55.707Z,26.63
2018-11-12T18:30:29.847Z,27.03
2018-11-12T18:32:58.817Z,27.43
2018-11-12T18:35:27.281Z,25.93
2018-11-12T18:37:56.139Z,25.67
2018-11-12T18:40:25.969Z,25.97
2018-11-12T18:42:54.463Z,25.83
2018-11-12T18:45:24.274Z,24.50
2018-11-12T18:47:52.908Z,25.23
2018-11-12T18:50:25.762Z,26.33
2018-11-12T18:52:54.313Z,26.93
2018-11-12T18:55:22.808Z,29.00
2018-11-12T18:57:51.734Z,28.17
2018-11-12T19:00:23.250Z,51.77
2018-11-12T19:02:52.078Z,73.80
2018-11-12T19:05:23.955Z,44.53
2018-11-12T19:07:53.374Z,31.47
2018-11-12T19:10:24.230Z,27.60
2018-11-12T19:12:53.059Z,48.23
2018-11-12T19:15:23.993Z,66.97
2018-11-12T19:18:00.375Z,57.93
2018-11-12T19:20:29.993Z,33.90
2018-11-12T19:22:58.525Z,68.93
2018-11-12T19:25:27.970Z,42.20
2018-11-12T19:27:56.576Z,34.80
2018-11-12T19:30:26.351Z,31.10
2018-11-12T19:32:54.922Z,52.67
2018-11-12T19:35:24.999Z,38.53
2018-11-12T19:37:53.517Z,34.27
2018-11-12T19:40:24.650Z,52.67
2018-11-12T19:42:54.317Z,59.13
2018-11-12T19:45:23.530Z,56.17
2018-11-12T19:47:52.440Z,40.33
2018-11-12T19:50:22.255Z,35.20
2018-11-12T19:52:51.980Z,34.37
2018-11-12T19:55:20.482Z,45.83
2018-11-12T19:57:49.101Z,44.27
2018-11-12T20:00:19.502Z,41.00
2018-11-12T20:02:49.347Z,45.17
2018-11-12T20:05:18.108Z,42.93
2018-11-12T20:07:46.914Z,43.20
2018-11-12T20:10:17.061Z,38.70
2018-11-12T20:12:45.595Z,37.93
2018-11-12T20:15:15.472Z,38.67
2018-11-12T20:17:44.925Z,39.23
2018-11-12T20:20:16.831Z,43.37
2018-11-12T20:22:46.104Z,38.93
2018-11-12T20:25:15.851Z,43.50
2018-11-12T20:27:44.686Z,42.03
2018-11-12T20:30:16.054Z,42.97
2018-11-12T20:32:44.848Z,41.77
2018-11-12T20:35:13.375Z,42.67
2018-11-12T20:37:41.918Z,41.43
2018-11-12T20:40:11.541Z,41.47
2018-11-12T20:42:40.241Z,36.97
2018-11-12T20:45:10.343Z,38.63
2018-11-12T20:47:39.371Z,41.87
2018-11-12T20:50:08.846Z,39.07
2018-11-12T20:52:37.436Z,39.50
2018-11-12T20:55:06.878Z,38.70
2018-11-12T20:57:35.796Z,40.10
2018-11-12T21:00:04.795Z,42.07
2018-11-12T21:02:33.377Z,43.37
2018-11-12T21:05:01.855Z,42.27
2018-11-12T21:07:30.421Z,41.07
2018-11-12T21:09:58.947Z,43.27
2018-11-12T21:12:27.450Z,40.07
2018-11-12T21:14:56.010Z,47.20
2018-11-12T21:17:24.605Z,42.37
2018-11-12T21:19:53.198Z,42.13
2018-11-12T21:22:21.746Z,45.83
2018-11-12T21:24:50.303Z,45.43
2018-11-12T21:27:18.797Z,47.70
2018-11-12T21:29:47.315Z,46.77
2018-11-12T21:32:15.829Z,49.07
2018-11-12T21:34:44.378Z,49.60
2018-11-12T21:37:13.005Z,47.60
2018-11-12T21:39:41.519Z,60.83
2018-11-12T21:42:10.043Z,48.57
2018-11-12T21:44:38.590Z,50.23
2018-11-12T21:47:07.110Z,51.47
2018-11-12T21:49:35.702Z,51.20
2018-11-12T21:52:04.218Z,51.23
2018-11-12T21:54:32.809Z,48.93
2018-11-12T21:57:01.321Z,49.77
2018-11-12T21:59:30.176Z,47.30
2018-11-12T22:01:58.666Z,50.40
2018-11-12T22:04:27.229Z,54.63
2018-11-12T22:06:55.755Z,47.73
2018-11-12T22:09:24.667Z,49.07
2018-11-12T22:11:53.192Z,47.00
2018-11-12T22:14:21.767Z,48.37
2018-11-12T22:16:50.319Z,50.80
2018-11-12T22:19:18.929Z,51.73
2018-11-12T22:21:47.383Z,52.50
2018-11-12T22:24:15.922Z,50.03
2018-11-12T22:26:44.502Z,48.57
2018-11-12T22:29:13.267Z,49.67
2018-11-12T22:31:41.789Z,54.73
2018-11-12T22:34:10.605Z,46.67
2018-11-12T22:36:39.162Z,49.70
2018-11-12T22:39:09.123Z,50.33
2018-11-12T22:41:37.625Z,46.60
2018-11-12T22:44:06.186Z,45.67
2018-11-12T22:46:35.154Z,51.00
2018-11-12T22:49:03.710Z,49.70
2018-11-12T22:51:32.654Z,51.90
2018-11-12T22:54:01.430Z,51.47
2018-11-12T22:56:29.818Z,50.77
2018-11-12T22:58:58.369Z,52.30
2018-11-12T23:01:27.256Z,51.17
2018-11-12T23:03:55.770Z,53.10
2018-11-12T23:06:24.333Z,50.87
2018-11-12T23:08:52.900Z,50.07
2018-11-12T23:11:21.413Z,51.73
2018-11-12T23:13:52.996Z,50.07
2018-11-12T23:16:21.499Z,51.17
2018-11-12T23:18:50.078Z,52.57
2018-11-12T23:21:18.958Z,57.33
2018-11-12T23:23:47.451Z,54.13
2018-11-12T23:26:16.022Z,51.63
2018-11-12T23:28:44.545Z,50.87
2018-11-12T23:31:13.066Z,47.33
2018-11-12T23:33:41.546Z,50.13
2018-11-12T23:36:10.111Z,50.90
2018-11-12T23:38:38.647Z,49.43
2018-11-12T23:41:07.234Z,50.10
2018-11-12T23:43:35.747Z,50.47
2018-11-12T23:46:04.300Z,52.87
2018-11-12T23:48:32.810Z,52.43
2018-11-12T23:51:01.384Z,47.73
2018-11-12T23:53:29.934Z,51.00
2018-11-12T23:55:58.469Z,54.33
2018-11-12T23:58:26.954Z,53.73
